createdAt,value
2022-11-13T00:00:31.996Z,59.55
2022-11-13T00:01:31.997Z,59.65
2022-11-13T00:02:32.046Z,59.65
2022-11-13T00:03:31.980Z,59.34
2022-11-13T00:04:31.951Z,58.83
2022-11-13T00:05:31.944Z,58.93
2022-11-13T00:06:31.933Z,59.03
2022-11-13T00:07:32.018Z,58.83
2022-11-13T00:08:31.910Z,59.03
2022-11-13T00:09:31.907Z,59.14
2022-11-13T00:10:31.942Z,58.96
2022-11-13T00:11:31.875Z,59.03
2022-11-13T00:12:31.863Z,59.24
2022-11-13T00:13:32.002Z,59.34
2022-11-13T00:14:31.845Z,58.93
2022-11-13T00:15:31.835Z,58.93
2022-11-13T00:16:31.820Z,59.14
2022-11-13T00:17:31.813Z,59.34
2022-11-13T00:18:31.802Z,59.14
2022-11-13T00:19:31.805Z,60.06
2022-11-13T00:20:31.776Z,60.58
2022-11-13T00:21:31.772Z,59.99
2022-11-13T00:22:31.753Z,59.58
2022-11-13T00:23:31.750Z,60.06
2022-11-13T00:24:31.734Z,60.58
2022-11-13T00:25:31.737Z,60.17
2022-11-13T00:26:31.712Z,60.09
2022-11-13T00:27:31.698Z,59.45
2022-11-13T00:28:31.693Z,59.06
2022-11-13T00:29:31.806Z,59.45
2022-11-13T00:30:31.680Z,60.27
2022-11-13T00:31:31.662Z,60.47
2022-11-13T00:32:31.644Z,59.75
2022-11-13T00:33:59.792Z,59.55
2022-11-13T00:34:47.258Z,59.75
2022-11-13T00:35:32.631Z,60.27
2022-11-13T00:36:31.603Z,60.37
2022-11-13T00:37:31.601Z,60.99
2022-11-13T00:38:31.585Z,60.47
2022-11-13T00:39:31.571Z,61.43
2022-11-13T00:40:31.556Z,61.43
2022-11-13T00:41:31.561Z,60.40
2022-11-13T00:42:31.536Z,59.68
2022-11-13T00:43:31.534Z,59.78
2022-11-13T00:44:31.517Z,59.03
2022-11-13T00:45:31.533Z,59.27
2022-11-13T00:46:31.504Z,59.55
2022-11-13T00:47:31.485Z,60.09
2022-11-13T00:48:31.480Z,62.79
2022-11-13T00:49:31.466Z,61.33
2022-11-13T00:50:31.455Z,60.40
2022-11-13T00:51:31.454Z,60.81
2022-11-13T00:52:31.430Z,61.94
2022-11-13T00:53:31.417Z,61.53
2022-11-13T00:54:31.406Z,61.53
2022-11-13T00:55:31.402Z,61.33
2022-11-13T00:56:31.396Z,60.50
2022-11-13T00:57:31.388Z,60.91
2022-11-13T00:58:31.783Z,62.07
2022-11-13T00:59:31.353Z,61.02
2022-11-13T01:00:31.342Z,60.81
2022-11-13T01:01:31.583Z,60.61
2022-11-13T01:02:31.323Z,59.99
2022-11-13T01:03:31.317Z,60.30
2022-11-13T01:04:31.301Z,59.89
2022-11-13T01:05:31.303Z,61.94
2022-11-13T01:06:31.275Z,61.22
2022-11-13T01:07:31.292Z,59.68
2022-11-13T01:08:31.481Z,58.83
2022-11-13T01:09:31.243Z,58.01
2022-11-13T01:10:31.229Z,57.18
2022-11-13T01:11:31.219Z,57.67
2022-11-13T01:12:31.211Z,57.80
2022-11-13T01:13:31.265Z,58.11
2022-11-13T01:14:31.188Z,58.83
2022-11-13T01:15:31.176Z,58.65
2022-11-13T01:16:31.172Z,59.17
2022-11-13T01:17:31.280Z,59.68
2022-11-13T01:18:31.145Z,60.89
2022-11-13T01:19:31.135Z,60.09
2022-11-13T01:20:31.119Z,58.96
2022-11-13T01:21:31.112Z,59.17
2022-11-13T01:22:31.100Z,58.14
2022-11-13T01:23:31.100Z,58.34
2022-11-13T01:24:31.080Z,59.14
2022-11-13T01:25:31.074Z,59.58
2022-11-13T01:26:31.055Z,59.47
2022-11-13T01:27:31.044Z,60.40
2022-11-13T01:28:31.230Z,59.47
2022-11-13T01:29:31.028Z,60.09
2022-11-13T01:30:31.025Z,59.58
2022-11-13T01:31:31.007Z,59.27
2022-11-13T01:32:30.990Z,58.14
2022-11-13T01:33:31.100Z,57.90
2022-11-13T01:34:30.981Z,57.70
2022-11-13T01:35:30.954Z,58.31
2022-11-13T01:36:30.974Z,59.03
2022-11-13T01:37:30.937Z,59.78
2022-11-13T01:38:34.450Z,60.27
2022-11-13T01:39:31.924Z,60.37
2022-11-13T01:40:30.901Z,59.96
2022-11-13T01:41:30.891Z,59.06
2022-11-13T01:42:30.893Z,59.34
2022-11-13T01:43:30.883Z,59.99
2022-11-13T01:44:30.857Z,59.17
2022-11-13T01:45:30.846Z,59.17
2022-11-13T01:46:30.849Z,58.65
2022-11-13T01:47:30.829Z,58.75
2022-11-13T01:48:31.018Z,59.17
2022-11-13T01:49:30.928Z,58.86
2022-11-13T01:50:30.795Z,59.27
2022-11-13T01:51:30.789Z,59.89
2022-11-13T01:52:30.771Z,60.30
2022-11-13T01:53:30.764Z,60.22
2022-11-13T01:54:30.765Z,60.53
2022-11-13T01:55:30.739Z,59.91
2022-11-13T01:56:30.726Z,60.02
2022-11-13T01:57:30.736Z,59.70
2022-11-13T01:58:30.928Z,58.68
2022-11-13T01:59:30.695Z,57.96
2022-11-13T02:00:30.691Z,58.34
2022-11-13T02:01:30.699Z,58.47
2022-11-13T02:02:30.662Z,58.47
2022-11-13T02:03:30.661Z,59.27
2022-11-13T02:04:30.647Z,59.06
2022-11-13T02:05:30.765Z,59.19
2022-11-13T02:06:30.624Z,58.54
2022-11-13T02:07:30.609Z,58.24
2022-11-13T02:08:31.001Z,58.03
2022-11-13T02:09:30.595Z,58.14
2022-11-13T02:10:30.582Z,58.03
2022-11-13T02:11:30.579Z,57.42
2022-11-13T02:12:30.559Z,58.03
2022-11-13T02:13:30.543Z,58.14
2022-11-13T02:14:30.530Z,57.73
2022-11-13T02:15:30.525Z,57.52
2022-11-13T02:16:30.510Z,58.34
2022-11-13T02:17:30.731Z,58.42
2022-11-13T02:18:30.789Z,57.90
2022-11-13T02:19:30.476Z,57.52
2022-11-13T02:20:30.474Z,57.59
2022-11-13T02:21:30.575Z,57.80
2022-11-13T02:22:30.448Z,57.73
2022-11-13T02:23:30.434Z,58.96
2022-11-13T02:24:32.386Z,58.21
2022-11-13T02:25:30.408Z,58.73
2022-11-13T02:26:30.465Z,58.96
2022-11-13T02:27:30.390Z,59.17
2022-11-13T02:28:30.787Z,59.58
2022-11-13T02:29:30.368Z,59.91
2022-11-13T02:30:30.377Z,59.01
2022-11-13T02:31:30.342Z,58.78
2022-11-13T02:32:30.336Z,58.34
2022-11-13T02:33:30.321Z,58.24
2022-11-13T02:34:30.314Z,58.96
2022-11-13T02:35:30.301Z,58.54
2022-11-13T02:36:30.311Z,59.06
2022-11-13T02:37:30.396Z,58.65
2022-11-13T02:38:30.719Z,58.24
2022-11-13T02:39:30.268Z,58.14
2022-11-13T02:40:30.251Z,58.62
2022-11-13T02:41:30.250Z,59.27
2022-11-13T02:42:30.226Z,58.65
2022-11-13T02:43:30.216Z,58.65
2022-11-13T02:44:30.207Z,57.52
2022-11-13T02:45:30.228Z,57.01
2022-11-13T02:46:30.181Z,58.11
2022-11-13T02:47:30.167Z,59.37
2022-11-13T02:48:30.519Z,59.06
2022-11-13T02:49:30.148Z,58.86
2022-11-13T02:50:30.134Z,58.96
2022-11-13T02:51:30.138Z,58.75
2022-11-13T02:52:30.186Z,57.82
2022-11-13T02:53:30.219Z,57.50
2022-11-13T02:54:30.365Z,57.70
2022-11-13T02:55:30.088Z,57.18
2022-11-13T02:56:30.082Z,57.82
2022-11-13T02:57:30.060Z,59.47
2022-11-13T02:58:30.665Z,59.17
2022-11-13T02:59:30.039Z,59.78
2022-11-13T03:00:30.045Z,59.17
2022-11-13T03:01:30.145Z,57.42
2022-11-13T03:02:30.012Z,56.90
2022-11-13T03:03:56.684Z,57.52
2022-11-13T03:04:50.186Z,57.62
2022-11-13T03:05:30.979Z,57.82
2022-11-13T03:06:30.175Z,58.14
2022-11-13T03:07:29.950Z,58.24
2022-11-13T03:08:30.853Z,56.90
2022-11-13T03:09:30.074Z,57.42
2022-11-13T03:10:29.913Z,57.93
2022-11-13T03:11:29.926Z,57.73
2022-11-13T03:12:29.897Z,57.42
2022-11-13T03:13:29.884Z,57.73
2022-11-13T03:14:29.875Z,57.52
2022-11-13T03:15:29.877Z,57.93
2022-11-13T03:16:29.852Z,58.96
2022-11-13T03:17:29.837Z,57.01
2022-11-13T03:18:30.062Z,57.21
2022-11-13T03:19:29.817Z,57.01
2022-11-13T03:20:29.806Z,57.34
2022-11-13T03:21:29.810Z,57.31
2022-11-13T03:22:29.786Z,57.10
2022-11-13T03:23:29.788Z,56.90
2022-11-13T03:24:29.767Z,57.52
2022-11-13T03:25:29.874Z,56.93
2022-11-13T03:26:29.757Z,59.19
2022-11-13T03:27:29.732Z,59.58
2022-11-13T03:28:37.255Z,61.80
2022-11-13T03:29:37.253Z,59.12
2022-11-13T03:30:37.213Z,60.33
2022-11-13T03:31:37.229Z,60.02
2022-11-13T03:32:29.730Z,59.09
2022-11-13T03:33:37.196Z,59.40
2022-11-13T03:34:37.178Z,60.35
2022-11-13T03:35:44.166Z,58.47
2022-11-13T03:37:40.949Z,58.16
2022-11-13T03:38:40.942Z,58.06
2022-11-13T03:39:41.006Z,58.37
2022-11-13T03:40:41.036Z,57.75
2022-11-13T03:41:40.911Z,60.02
2022-11-13T03:42:40.898Z,60.87
2022-11-13T03:43:40.884Z,61.80
2022-11-13T03:44:40.874Z,60.46
2022-11-13T03:45:40.884Z,59.97
2022-11-13T03:46:40.862Z,62.52
2022-11-13T03:47:40.858Z,61.18
2022-11-13T03:48:40.844Z,59.42
2022-11-13T03:49:40.820Z,57.78
2022-11-13T03:50:45.330Z,58.09
2022-11-13T03:51:40.798Z,59.01
2022-11-13T03:52:40.793Z,57.65
2022-11-13T03:53:40.791Z,59.30
2022-11-13T03:54:40.764Z,57.65
2022-11-13T03:55:40.756Z,57.24
2022-11-13T03:56:40.866Z,57.54
2022-11-13T03:57:40.746Z,57.75
2022-11-13T03:58:42.091Z,58.89
2022-11-13T03:59:40.723Z,57.75
2022-11-13T04:00:40.705Z,57.54
2022-11-13T04:01:40.725Z,56.93
2022-11-13T04:02:40.680Z,57.34
2022-11-13T04:03:40.670Z,57.54
2022-11-13T04:04:40.655Z,57.75
2022-11-13T04:05:40.755Z,57.65
2022-11-13T04:06:40.735Z,58.78
2022-11-13T04:07:40.628Z,59.61
2022-11-13T04:08:40.612Z,59.70
2022-11-13T04:09:40.601Z,58.98
2022-11-13T04:10:40.592Z,58.58
2022-11-13T04:11:40.589Z,58.37
2022-11-13T04:12:40.691Z,58.98
2022-11-13T04:13:40.555Z,58.16
2022-11-13T04:14:40.550Z,58.98
2022-11-13T04:15:40.537Z,58.40
2022-11-13T04:16:40.545Z,58.26
2022-11-13T04:17:40.517Z,58.06
2022-11-13T04:18:40.507Z,58.78
2022-11-13T04:19:40.495Z,58.47
2022-11-13T04:20:40.483Z,56.82
2022-11-13T04:21:40.473Z,57.44
2022-11-13T04:22:40.481Z,56.10
2022-11-13T04:23:40.446Z,57.44
2022-11-13T04:24:40.444Z,56.72
2022-11-13T04:25:40.423Z,57.31
2022-11-13T04:26:40.418Z,57.86
2022-11-13T04:27:40.405Z,57.65
2022-11-13T04:28:40.516Z,58.70
2022-11-13T04:29:40.380Z,57.65
2022-11-13T04:30:40.379Z,57.86
2022-11-13T04:31:40.375Z,57.14
2022-11-13T04:32:40.362Z,57.96
2022-11-13T04:33:40.339Z,57.44
2022-11-13T04:34:40.329Z,56.62
2022-11-13T04:35:40.316Z,57.24
2022-11-13T04:36:40.366Z,57.24
2022-11-13T04:37:40.295Z,57.44
2022-11-13T04:38:40.297Z,57.86
2022-11-13T04:39:40.281Z,58.60
2022-11-13T04:40:40.276Z,58.06
2022-11-13T04:41:40.252Z,57.44
2022-11-13T04:42:40.268Z,57.54
2022-11-13T04:43:40.255Z,57.54
2022-11-13T04:44:40.340Z,57.47
2022-11-13T04:45:40.208Z,58.47
2022-11-13T04:46:40.195Z,58.37
2022-11-13T04:47:40.184Z,57.86
2022-11-13T04:48:40.238Z,58.26
2022-11-13T04:49:40.260Z,58.47
2022-11-13T04:50:40.154Z,58.47
2022-11-13T04:51:40.139Z,59.30
2022-11-13T04:52:40.132Z,58.78
2022-11-13T04:53:40.119Z,57.65
2022-11-13T04:54:40.167Z,59.09
2022-11-13T04:55:40.107Z,58.16
2022-11-13T04:56:40.085Z,58.47
2022-11-13T04:57:40.077Z,59.53
2022-11-13T04:58:40.135Z,59.35
2022-11-13T04:59:40.051Z,57.81
2022-11-13T05:00:40.181Z,57.26
2022-11-13T05:01:40.080Z,57.47
2022-11-13T05:02:40.028Z,56.85
2022-11-13T05:03:40.011Z,57.68
2022-11-13T05:04:39.997Z,57.37
2022-11-13T05:05:39.987Z,57.68
2022-11-13T05:06:40.150Z,57.57
2022-11-13T05:07:39.968Z,58.09
2022-11-13T05:08:39.954Z,57.78
2022-11-13T05:09:39.945Z,57.75
2022-11-13T05:10:39.954Z,58.40
2022-11-13T05:11:39.926Z,58.81
2022-11-13T05:12:39.957Z,58.40
2022-11-13T05:13:39.898Z,57.57
2022-11-13T05:14:39.891Z,57.68
2022-11-13T05:15:39.879Z,57.18
2022-11-13T05:16:39.990Z,57.78
2022-11-13T05:17:39.853Z,58.29
2022-11-13T05:18:39.870Z,57.98
2022-11-13T05:19:39.829Z,58.91
2022-11-13T05:20:39.824Z,58.81
2022-11-13T05:21:39.807Z,58.19
2022-11-13T05:22:39.801Z,57.88
2022-11-13T05:23:39.790Z,58.60
2022-11-13T05:24:39.799Z,58.63
2022-11-13T05:25:39.768Z,58.29
2022-11-13T05:26:39.760Z,57.47
2022-11-13T05:27:39.744Z,57.88
2022-11-13T05:28:39.746Z,58.11
2022-11-13T05:29:39.724Z,57.47
2022-11-13T05:30:39.732Z,57.47
2022-11-13T05:31:39.700Z,57.88
2022-11-13T05:32:39.807Z,57.57
2022-11-13T05:33:39.681Z,58.19
2022-11-13T05:34:39.670Z,57.06
2022-11-13T05:35:39.674Z,56.21
2022-11-13T05:36:39.654Z,55.90
2022-11-13T05:37:39.635Z,56.21
2022-11-13T05:38:39.624Z,55.90
2022-11-13T05:39:39.614Z,56.21
2022-11-13T05:40:39.606Z,56.21
2022-11-13T05:41:39.601Z,57.34
2022-11-13T05:42:39.581Z,57.14
2022-11-13T05:43:39.567Z,57.16
2022-11-13T05:44:39.556Z,56.72
2022-11-13T05:45:39.546Z,55.49
2022-11-13T05:46:39.556Z,55.80
2022-11-13T05:47:39.528Z,55.69
2022-11-13T05:48:39.645Z,55.59
2022-11-13T05:49:39.503Z,55.69
2022-11-13T05:50:39.504Z,55.49
2022-11-13T05:51:39.489Z,55.69
2022-11-13T05:52:39.469Z,56.31
2022-11-13T05:53:39.461Z,55.90
2022-11-13T05:54:39.460Z,56.41
2022-11-13T05:55:39.453Z,56.52
2022-11-13T05:56:39.428Z,55.80
2022-11-13T05:57:39.429Z,55.15
2022-11-13T05:58:39.403Z,54.64
2022-11-13T05:59:39.391Z,54.87
2022-11-13T06:00:39.388Z,55.36
2022-11-13T06:01:39.513Z,55.36
2022-11-13T06:02:39.374Z,56.41
2022-11-13T06:03:39.349Z,56.00
2022-11-13T06:04:39.460Z,55.59
2022-11-13T06:05:39.325Z,55.90
2022-11-13T06:06:39.360Z,55.80
2022-11-13T06:07:39.310Z,55.59
2022-11-13T06:08:39.298Z,55.38
2022-11-13T06:09:39.285Z,56.10
2022-11-13T06:10:39.273Z,55.66
2022-11-13T06:11:39.261Z,55.90
2022-11-13T06:12:39.272Z,55.36
2022-11-13T06:13:39.247Z,55.80
2022-11-13T06:14:39.231Z,55.87
2022-11-13T06:15:39.214Z,57.34
2022-11-13T06:16:39.206Z,56.52
2022-11-13T06:17:39.210Z,55.90
2022-11-13T06:18:39.185Z,55.28
2022-11-13T06:19:39.181Z,55.07
2022-11-13T06:20:39.299Z,54.87
2022-11-13T06:21:39.150Z,54.66
2022-11-13T06:22:39.142Z,54.97
2022-11-13T06:23:39.142Z,53.94
2022-11-13T06:24:39.129Z,53.50
2022-11-13T06:25:39.108Z,52.78
2022-11-13T06:26:39.096Z,54.43
2022-11-13T06:27:39.091Z,53.61
2022-11-13T06:28:39.072Z,54.74
2022-11-13T06:29:39.075Z,53.81
2022-11-13T06:30:39.061Z,53.81
2022-11-13T06:31:39.050Z,54.74
2022-11-13T06:32:39.051Z,54.43
2022-11-13T06:33:39.024Z,54.66
2022-11-13T06:34:39.008Z,56.52
2022-11-13T06:35:38.998Z,55.90
2022-11-13T06:36:39.110Z,56.62
2022-11-13T06:37:38.974Z,55.59
2022-11-13T06:38:39.032Z,56.00
2022-11-13T06:39:38.961Z,55.07
2022-11-13T06:40:38.943Z,55.28
2022-11-13T06:41:38.935Z,57.75
2022-11-13T06:42:39.205Z,55.41
2022-11-13T06:43:38.911Z,55.49
2022-11-13T06:44:38.897Z,54.97
2022-11-13T06:45:38.891Z,57.14
2022-11-13T06:46:38.875Z,57.65
2022-11-13T06:47:38.877Z,59.01
2022-11-13T06:48:38.876Z,58.29
2022-11-13T06:49:38.847Z,58.37
2022-11-13T06:50:38.832Z,59.04
2022-11-13T06:51:38.824Z,59.14
2022-11-13T06:52:38.927Z,59.14
2022-11-13T06:53:38.808Z,61.41
2022-11-13T06:54:38.846Z,59.89
2022-11-13T06:55:38.783Z,60.21
2022-11-13T06:56:38.782Z,58.32
2022-11-13T06:57:38.763Z,55.85
2022-11-13T06:58:38.760Z,55.28
2022-11-13T06:59:38.735Z,55.18
2022-11-13T07:00:40.171Z,55.59
2022-11-13T07:01:38.827Z,55.28
2022-11-13T07:02:38.718Z,56.10
2022-11-13T07:03:38.712Z,57.03
2022-11-13T07:04:38.685Z,56.21
2022-11-13T07:05:38.883Z,56.21
2022-11-13T07:06:40.543Z,56.23
2022-11-13T07:07:38.649Z,55.07
2022-11-13T07:08:38.750Z,57.75
2022-11-13T07:09:38.627Z,55.69
2022-11-13T07:10:38.615Z,55.28
2022-11-13T07:11:38.602Z,54.77
2022-11-13T07:12:38.715Z,54.64
2022-11-13T07:13:38.593Z,55.05
2022-11-13T07:14:38.571Z,55.49
2022-11-13T07:15:38.560Z,55.28
2022-11-13T07:16:56.620Z,55.66
2022-11-13T07:17:39.556Z,55.69
2022-11-13T07:18:38.586Z,56.59
2022-11-13T07:19:38.519Z,57.52
2022-11-13T07:20:38.507Z,56.72
2022-11-13T07:21:38.494Z,55.98
2022-11-13T07:22:38.480Z,57.01
2022-11-13T07:23:38.493Z,57.01
2022-11-13T07:24:38.628Z,57.10
2022-11-13T07:25:38.451Z,56.49
2022-11-13T07:26:38.444Z,56.29
2022-11-13T07:27:38.439Z,55.66
2022-11-13T07:28:38.425Z,55.98
2022-11-13T07:29:38.424Z,57.31
2022-11-13T07:30:38.449Z,56.80
2022-11-13T07:31:38.386Z,57.10
2022-11-13T07:32:38.373Z,57.82
2022-11-13T07:33:38.361Z,57.82
2022-11-13T07:34:38.353Z,57.42
2022-11-13T07:35:38.367Z,58.03
2022-11-13T07:36:38.346Z,57.54
2022-11-13T07:37:38.320Z,57.24
2022-11-13T07:38:38.304Z,56.18
2022-11-13T07:39:38.294Z,55.77
2022-11-13T07:40:38.404Z,58.47
2022-11-13T07:41:38.287Z,60.84
2022-11-13T07:42:38.276Z,61.66
2022-11-13T07:43:38.253Z,58.68
2022-11-13T07:44:53.940Z,57.14
2022-11-13T07:45:39.231Z,55.46
2022-11-13T07:46:38.242Z,57.31
2022-11-13T07:47:38.241Z,55.36
2022-11-13T07:48:38.210Z,57.42
2022-11-13T07:49:38.190Z,59.19
2022-11-13T07:50:38.178Z,57.42
2022-11-13T07:51:38.179Z,57.82
2022-11-13T07:52:38.152Z,57.21
2022-11-13T07:53:38.219Z,55.15
2022-11-13T07:54:38.131Z,57.42
2022-11-13T07:55:38.125Z,56.29
2022-11-13T07:56:38.245Z,56.08
2022-11-13T07:57:38.095Z,57.21
2022-11-13T07:58:38.090Z,55.98
2022-11-13T07:59:38.079Z,57.52
2022-11-13T08:00:38.100Z,56.70
2022-11-13T08:01:38.058Z,56.72
2022-11-13T08:02:38.057Z,57.01
2022-11-13T08:03:38.035Z,57.01
2022-11-13T08:04:38.025Z,56.26
2022-11-13T08:05:38.022Z,55.57
2022-11-13T08:06:38.037Z,55.43
2022-11-13T08:07:37.990Z,55.54
2022-11-13T08:08:37.979Z,56.05
2022-11-13T08:09:37.968Z,55.87
2022-11-13T08:10:37.969Z,55.98
2022-11-13T08:11:37.950Z,55.54
2022-11-13T08:12:38.051Z,55.66
2022-11-13T08:13:37.929Z,55.15
2022-11-13T08:14:37.915Z,53.69
2022-11-13T08:15:37.916Z,53.56
2022-11-13T08:16:37.889Z,53.38
2022-11-13T08:17:37.994Z,53.56
2022-11-13T08:18:37.868Z,54.41
2022-11-13T08:19:37.856Z,54.82
2022-11-13T08:20:37.847Z,55.64
2022-11-13T08:21:37.838Z,56.49
2022-11-13T08:22:37.822Z,56.08
2022-11-13T08:23:37.833Z,56.41
2022-11-13T08:24:37.806Z,57.03
2022-11-13T08:25:37.794Z,56.21
2022-11-13T08:26:37.875Z,55.59
2022-11-13T08:27:37.779Z,53.58
2022-11-13T08:28:37.901Z,53.25
2022-11-13T08:29:37.755Z,53.35
2022-11-13T08:30:37.738Z,53.69
2022-11-13T08:31:37.728Z,53.45
2022-11-13T08:32:37.719Z,53.45
2022-11-13T08:33:37.705Z,53.56
2022-11-13T08:34:37.706Z,55.23
2022-11-13T08:35:37.687Z,55.77
2022-11-13T08:36:37.671Z,57.01
2022-11-13T08:37:37.662Z,56.82
2022-11-13T08:38:37.651Z,57.34
2022-11-13T08:39:37.640Z,56.67
2022-11-13T08:40:37.736Z,55.74
2022-11-13T08:41:37.625Z,55.74
2022-11-13T08:42:37.603Z,55.21
2022-11-13T08:43:37.596Z,55.41
2022-11-13T08:44:37.706Z,55.72
2022-11-13T08:45:37.574Z,56.85
2022-11-13T08:46:37.576Z,54.90
2022-11-13T08:47:37.562Z,55.21
2022-11-13T08:48:37.539Z,55.62
2022-11-13T08:49:37.529Z,54.77
2022-11-13T08:50:37.515Z,52.87
2022-11-13T08:51:37.517Z,52.08
2022-11-13T08:52:37.497Z,50.37
2022-11-13T08:53:37.542Z,50.30
2022-11-13T08:54:37.473Z,50.37
2022-11-13T08:55:37.460Z,49.00
2022-11-13T08:56:37.482Z,46.73
2022-11-13T08:57:37.447Z,47.55
2022-11-13T08:58:37.439Z,47.24
2022-11-13T08:59:37.474Z,48.06
2022-11-13T09:00:37.526Z,48.24
2022-11-13T09:01:37.396Z,45.75
2022-11-13T09:02:37.395Z,44.71
2022-11-13T09:03:37.523Z,44.92
2022-11-13T09:04:37.373Z,48.07
2022-11-13T09:05:37.355Z,45.53
2022-11-13T09:06:37.404Z,46.64
2022-11-13T09:07:37.327Z,49.48
2022-11-13T09:08:37.341Z,47.19
2022-11-13T09:09:37.311Z,44.53
2022-11-13T09:10:37.304Z,44.34
2022-11-13T09:11:37.288Z,46.48
2022-11-13T09:12:37.281Z,44.85
2022-11-13T09:13:42.750Z,45.59
2022-11-13T09:14:38.276Z,47.44
2022-11-13T09:15:37.246Z,47.31
2022-11-13T09:16:37.360Z,47.06
2022-11-13T09:17:37.219Z,45.64
2022-11-13T09:18:37.207Z,44.91
2022-11-13T09:19:37.196Z,44.71
2022-11-13T09:20:37.203Z,46.94
2022-11-13T09:21:37.177Z,43.71
2022-11-13T09:22:37.168Z,46.89
2022-11-13T09:23:37.159Z,46.07
2022-11-13T09:24:37.153Z,45.48
2022-11-13T09:25:38.015Z,45.46
2022-11-13T09:26:37.125Z,45.28
2022-11-13T09:27:37.112Z,45.14
2022-11-13T09:28:37.100Z,45.72
2022-11-13T09:29:37.094Z,47.00
2022-11-13T09:30:37.086Z,44.68
2022-11-13T09:31:37.065Z,43.87
2022-11-13T09:32:37.175Z,46.74
2022-11-13T09:33:37.042Z,45.29
2022-11-13T09:34:37.033Z,45.56
2022-11-13T09:35:37.025Z,45.20
2022-11-13T09:36:37.032Z,45.78
2022-11-13T09:37:36.999Z,46.78
2022-11-13T09:38:36.992Z,45.32
2022-11-13T09:39:36.979Z,45.32
2022-11-13T09:40:37.067Z,44.91
2022-11-13T09:41:36.965Z,45.60
2022-11-13T09:42:36.944Z,43.67
2022-11-13T09:43:36.933Z,44.81
2022-11-13T09:44:36.925Z,47.13
2022-11-13T09:45:36.910Z,45.05
2022-11-13T09:46:36.910Z,44.52
2022-11-13T09:47:36.891Z,43.61
2022-11-13T09:48:36.999Z,43.41
2022-11-13T09:49:36.873Z,43.61
2022-11-13T09:50:36.868Z,42.78
2022-11-13T09:51:36.847Z,45.19
2022-11-13T09:52:36.836Z,45.29
2022-11-13T09:53:36.823Z,44.27
2022-11-13T09:54:36.813Z,42.35
2022-11-13T09:55:36.803Z,44.50
2022-11-13T09:56:36.808Z,44.60
2022-11-13T09:57:36.781Z,45.54
2022-11-13T09:58:36.775Z,43.32
2022-11-13T09:59:36.757Z,43.75
2022-11-13T10:00:36.763Z,43.65
2022-11-13T10:01:36.734Z,45.36
2022-11-13T10:02:36.724Z,44.13
2022-11-13T10:04:00.008Z,46.51
2022-11-13T10:04:37.827Z,45.29
2022-11-13T10:05:36.692Z,44.89
2022-11-13T10:06:36.853Z,45.27
2022-11-13T10:07:36.671Z,45.29
2022-11-13T10:08:36.656Z,46.12
2022-11-13T10:09:36.665Z,44.42
2022-11-13T10:10:36.648Z,44.54
2022-11-13T10:11:36.630Z,45.03
2022-11-13T10:12:36.615Z,44.93
2022-11-13T10:13:36.606Z,46.14
2022-11-13T10:14:36.652Z,45.43
2022-11-13T10:15:36.582Z,43.41
2022-11-13T10:16:36.577Z,43.93
2022-11-13T10:17:36.560Z,43.75
2022-11-13T10:18:36.554Z,45.09
2022-11-13T10:19:36.538Z,46.01
2022-11-13T10:20:36.755Z,47.22
2022-11-13T10:21:36.516Z,46.06
2022-11-13T10:22:36.500Z,45.66
2022-11-13T10:23:36.495Z,45.28
2022-11-13T10:24:36.486Z,45.03
2022-11-13T10:25:36.471Z,46.61
2022-11-13T10:26:36.470Z,43.38
2022-11-13T10:27:36.531Z,44.34
2022-11-13T10:28:50.633Z,46.14
2022-11-13T10:29:37.424Z,43.43
2022-11-13T10:30:36.422Z,45.78
2022-11-13T10:31:36.419Z,46.37
2022-11-13T10:32:36.395Z,44.56
2022-11-13T10:33:36.382Z,44.56
2022-11-13T10:34:36.374Z,43.85
2022-11-13T10:35:36.360Z,43.67
2022-11-13T10:36:36.472Z,45.62
2022-11-13T10:37:36.437Z,44.48
2022-11-13T10:38:36.334Z,43.79
2022-11-13T10:39:36.315Z,44.68
2022-11-13T10:40:36.302Z,45.60
2022-11-13T10:41:36.291Z,46.88
2022-11-13T10:42:36.281Z,44.56
2022-11-13T10:43:36.282Z,45.05
2022-11-13T10:44:36.255Z,44.74
2022-11-13T10:45:36.246Z,46.73
2022-11-13T10:46:36.233Z,44.01
2022-11-13T10:48:02.642Z,43.61
2022-11-13T10:48:37.238Z,44.67
2022-11-13T10:49:36.224Z,45.56
2022-11-13T10:50:36.191Z,45.37
2022-11-13T10:51:36.186Z,42.88
2022-11-13T10:52:36.290Z,43.57
2022-11-13T10:53:36.160Z,43.84
2022-11-13T10:54:36.153Z,46.98
2022-11-13T10:55:36.149Z,48.40
2022-11-13T10:56:36.126Z,48.30
2022-11-13T10:57:36.112Z,46.02
2022-11-13T10:58:36.101Z,46.00
2022-11-13T10:59:36.089Z,46.79
2022-11-13T11:00:36.083Z,45.87
2022-11-13T11:01:36.158Z,48.13
2022-11-13T11:02:36.060Z,46.91
2022-11-13T11:03:36.045Z,45.51
2022-11-13T11:04:36.036Z,46.77
2022-11-13T11:05:36.027Z,45.27
2022-11-13T11:07:04.976Z,46.02
2022-11-13T11:07:37.043Z,47.06
2022-11-13T11:08:36.128Z,47.89
2022-11-13T11:09:35.983Z,48.40
2022-11-13T11:10:35.971Z,47.67
2022-11-13T11:11:35.960Z,48.15
2022-11-13T11:12:36.023Z,47.92
2022-11-13T11:13:35.940Z,47.88
2022-11-13T11:14:35.925Z,49.02
2022-11-13T11:15:35.929Z,49.86
2022-11-13T11:16:35.903Z,48.31
2022-11-13T11:17:35.891Z,49.75
2022-11-13T11:18:35.889Z,49.55
2022-11-13T11:19:35.874Z,49.85
2022-11-13T11:20:35.870Z,48.71
2022-11-13T11:21:35.847Z,49.08
2022-11-13T11:22:35.837Z,48.72
2022-11-13T11:23:35.827Z,48.69
2022-11-13T11:24:35.968Z,51.21
2022-11-13T11:25:35.804Z,51.39
2022-11-13T11:26:35.791Z,50.27
2022-11-13T11:27:35.785Z,49.41
2022-11-13T11:28:35.767Z,51.16
2022-11-13T11:29:35.761Z,49.97
2022-11-13T11:30:35.758Z,49.72
2022-11-13T11:31:35.741Z,48.48
2022-11-13T11:32:35.726Z,49.65
2022-11-13T11:33:35.723Z,48.41
2022-11-13T11:34:35.717Z,50.03
2022-11-13T11:35:35.690Z,51.02
2022-11-13T11:36:35.686Z,50.86
2022-11-13T11:37:35.673Z,50.96
2022-11-13T11:38:35.658Z,50.60
2022-11-13T11:39:35.660Z,52.51
2022-11-13T11:40:35.756Z,49.87
2022-11-13T11:41:35.625Z,49.37
2022-11-13T11:42:35.614Z,48.46
2022-11-13T11:43:35.627Z,50.81
2022-11-13T11:44:35.591Z,52.84
2022-11-13T11:45:35.579Z,52.61
2022-11-13T11:46:35.566Z,50.54
2022-11-13T11:47:35.558Z,49.90
2022-11-13T11:48:35.546Z,49.38
2022-11-13T11:49:35.552Z,50.59
2022-11-13T11:50:35.523Z,50.51
2022-11-13T11:51:35.517Z,51.04
2022-11-13T11:52:35.505Z,52.23
2022-11-13T11:53:35.494Z,49.73
2022-11-13T11:54:35.542Z,49.60
2022-11-13T11:55:35.491Z,48.91
2022-11-13T11:56:35.583Z,51.37
2022-11-13T11:57:35.448Z,51.32
2022-11-13T11:58:35.469Z,49.40
2022-11-13T11:59:35.429Z,50.61
2022-11-13T12:00:35.419Z,47.88
2022-11-13T12:01:35.412Z,51.19
2022-11-13T12:02:35.395Z,51.07
2022-11-13T12:03:35.387Z,51.32
2022-11-13T12:04:35.459Z,49.88
2022-11-13T12:05:35.423Z,50.01
2022-11-13T12:06:35.353Z,47.60
2022-11-13T12:07:35.362Z,49.40
2022-11-13T12:08:35.327Z,50.34
2022-11-13T12:09:35.324Z,51.52
2022-11-13T12:10:35.311Z,50.48
2022-11-13T12:11:35.296Z,50.76
2022-11-13T12:12:35.415Z,46.81
2022-11-13T12:13:35.279Z,44.78
2022-11-13T12:14:35.263Z,46.87
2022-11-13T12:15:35.256Z,45.25
2022-11-13T12:16:35.246Z,51.62
2022-11-13T12:17:35.331Z,50.46
2022-11-13T12:18:35.222Z,50.86
2022-11-13T12:19:35.218Z,52.51
2022-11-13T12:20:35.198Z,50.40
2022-11-13T12:21:35.190Z,50.35
2022-11-13T12:22:35.178Z,46.79
2022-11-13T12:23:35.180Z,44.95
2022-11-13T12:24:35.153Z,50.01
2022-11-13T12:25:35.211Z,51.35
2022-11-13T12:26:35.133Z,49.73
2022-11-13T12:27:35.233Z,49.90
2022-11-13T12:28:40.642Z,52.06
2022-11-13T12:29:36.105Z,52.06
2022-11-13T12:30:35.091Z,47.88
2022-11-13T12:31:35.081Z,46.36
2022-11-13T12:32:35.069Z,48.49
2022-11-13T12:33:35.069Z,50.96
2022-11-13T12:34:35.047Z,52.64
2022-11-13T12:35:35.040Z,52.05
2022-11-13T12:36:35.030Z,52.05
2022-11-13T12:37:35.015Z,52.79
2022-11-13T12:38:35.001Z,52.97
2022-11-13T12:39:35.002Z,53.12
2022-11-13T12:40:37.571Z,52.89
2022-11-13T12:41:35.966Z,53.19
2022-11-13T12:42:34.955Z,53.67
2022-11-13T12:43:34.951Z,53.17
2022-11-13T12:44:35.058Z,52.86
2022-11-13T12:45:34.932Z,52.66
2022-11-13T12:46:34.914Z,54.00
2022-11-13T12:47:34.903Z,54.11
2022-11-13T12:48:34.887Z,53.80
2022-11-13T12:49:34.903Z,52.99
2022-11-13T12:50:34.880Z,54.41
2022-11-13T12:51:34.860Z,52.89
2022-11-13T12:52:34.853Z,52.71
2022-11-13T12:53:34.836Z,53.09